sensor_id;sensor_type;location;lat;lon;timestamp;P1;durP1;ratioP1;P2;durP2;ratioP2
20443;SDS011;10381;53.730;10.010;2022-11-20T00:02:51;82.88;;;75.47;;
20443;SDS011;10381;53.730;10.010;2022-11-20T00:06:51;86.20;;;78.43;;
20443;SDS011;10381;53.730;10.010;2022-11-20T00:10:52;93.90;;;85.47;;
20443;SDS011;10381;53.730;10.010;2022-11-20T00:14:52;84.43;;;76.57;;
20443;SDS011;10381;53.730;10.010;2022-11-20T00:18:52;89.87;;;81.90;;
20443;SDS011;10381;53.730;10.010;2022-11-20T00:22:53;81.32;;;73.70;;
20443;SDS011;10381;53.730;10.010;2022-11-20T00:26:53;87.13;;;79.20;;
20443;SDS011;10381;53.730;10.010;2022-11-20T00:30:59;93.20;;;84.83;;
20443;SDS011;10381;53.730;10.010;2022-11-20T00:35:03;88.88;;;80.47;;
20443;SDS011;10381;53.730;10.010;2022-11-20T00:39:03;85.82;;;78.25;;
20443;SDS011;10381;53.730;10.010;2022-11-20T00:43:03;95.85;;;87.47;;
20443;SDS011;10381;53.730;10.010;2022-11-20T00:47:04;96.87;;;86.77;;
20443;SDS011;10381;53.730;10.010;2022-11-20T00:51:04;100.95;;;92.03;;
20443;SDS011;10381;53.730;10.010;2022-11-20T00:55:05;97.78;;;89.25;;
20443;SDS011;10381;53.730;10.010;2022-11-20T00:59:05;101.38;;;92.53;;
20443;SDS011;10381;53.730;10.010;2022-11-20T01:03:06;98.53;;;89.65;;
20443;SDS011;10381;53.730;10.010;2022-11-20T01:07:06;100.37;;;91.33;;
20443;SDS011;10381;53.730;10.010;2022-11-20T01:11:07;99.47;;;90.50;;
20443;SDS011;10381;53.730;10.010;2022-11-20T01:15:10;101.80;;;92.53;;
20443;SDS011;10381;53.730;10.010;2022-11-20T01:19:11;102.30;;;93.30;;
20443;SDS011;10381;53.730;10.010;2022-11-20T01:23:14;108.88;;;99.00;;
20443;SDS011;10381;53.730;10.010;2022-11-20T01:27:14;115.53;;;105.17;;
20443;SDS011;10381;53.730;10.010;2022-11-20T01:31:22;117.57;;;106.87;;
20443;SDS011;10381;53.730;10.010;2022-11-20T01:35:24;117.80;;;107.00;;
20443;SDS011;10381;53.730;10.010;2022-11-20T01:39:25;122.37;;;111.63;;
20443;SDS011;10381;53.730;10.010;2022-11-20T01:43:26;124.68;;;113.00;;
20443;SDS011;10381;53.730;10.010;2022-11-20T01:51:38;131.38;;;119.28;;
20443;SDS011;10381;53.730;10.010;2022-11-20T01:55:48;133.90;;;121.38;;
20443;SDS011;10381;53.730;10.010;2022-11-20T01:59:56;134.77;;;121.32;;
20443;SDS011;10381;53.730;10.010;2022-11-20T02:04:02;128.95;;;116.85;;
20443;SDS011;10381;53.730;10.010;2022-11-20T02:08:03;137.05;;;123.90;;
20443;SDS011;10381;53.730;10.010;2022-11-20T02:12:05;144.48;;;130.88;;
20443;SDS011;10381;53.730;10.010;2022-11-20T02:16:27;144.20;;;130.80;;
20443;SDS011;10381;53.730;10.010;2022-11-20T02:20:30;141.38;;;128.15;;
20443;SDS011;10381;53.730;10.010;2022-11-20T02:24:30;140.73;;;127.32;;
20443;SDS011;10381;53.730;10.010;2022-11-20T02:28:31;148.82;;;134.20;;
20443;SDS011;10381;53.730;10.010;2022-11-20T02:32:33;152.80;;;137.57;;
20443;SDS011;10381;53.730;10.010;2022-11-20T02:36:35;150.05;;;135.27;;
20443;SDS011;10381;53.730;10.010;2022-11-20T02:40:39;145.45;;;131.13;;
20443;SDS011;10381;53.730;10.010;2022-11-20T02:44:40;152.77;;;137.82;;
20443;SDS011;10381;53.730;10.010;2022-11-20T02:48:41;149.57;;;134.85;;
20443;SDS011;10381;53.730;10.010;2022-11-20T02:52:41;155.87;;;140.30;;
20443;SDS011;10381;53.730;10.010;2022-11-20T02:56:41;150.95;;;135.85;;
20443;SDS011;10381;53.730;10.010;2022-11-20T03:00:42;152.52;;;137.45;;
20443;SDS011;10381;53.730;10.010;2022-11-20T03:04:42;147.70;;;132.87;;
20443;SDS011;10381;53.730;10.010;2022-11-20T03:08:42;149.63;;;134.57;;
20443;SDS011;10381;53.730;10.010;2022-11-20T03:12:43;145.27;;;130.57;;
20443;SDS011;10381;53.730;10.010;2022-11-20T03:16:43;150.10;;;135.27;;
20443;SDS011;10381;53.730;10.010;2022-11-20T03:20:43;151.90;;;136.90;;
20443;SDS011;10381;53.730;10.010;2022-11-20T03:24:43;151.77;;;136.63;;
20443;SDS011;10381;53.730;10.010;2022-11-20T03:28:54;148.10;;;133.50;;
20443;SDS011;10381;53.730;10.010;2022-11-20T03:32:56;147.38;;;132.93;;
20443;SDS011;10381;53.730;10.010;2022-11-20T03:36:56;146.50;;;131.53;;
20443;SDS011;10381;53.730;10.010;2022-11-20T03:41:00;153.27;;;138.20;;
20443;SDS011;10381;53.730;10.010;2022-11-20T03:45:01;149.60;;;134.95;;
20443;SDS011;10381;53.730;10.010;2022-11-20T03:49:02;148.23;;;133.25;;
20443;SDS011;10381;53.730;10.010;2022-11-20T03:53:03;152.57;;;137.35;;
20443;SDS011;10381;53.730;10.010;2022-11-20T03:57:04;158.40;;;142.40;;
20443;SDS011;10381;53.730;10.010;2022-11-20T04:01:08;167.82;;;151.45;;
20443;SDS011;10381;53.730;10.010;2022-11-20T04:05:10;170.90;;;154.02;;
20443;SDS011;10381;53.730;10.010;2022-11-20T04:09:10;178.07;;;160.73;;
20443;SDS011;10381;53.730;10.010;2022-11-20T04:13:10;194.23;;;175.27;;
20443;SDS011;10381;53.730;10.010;2022-11-20T04:17:11;219.23;;;197.00;;
20443;SDS011;10381;53.730;10.010;2022-11-20T04:21:11;232.15;;;209.57;;
20443;SDS011;10381;53.730;10.010;2022-11-20T04:25:11;236.65;;;213.30;;
20443;SDS011;10381;53.730;10.010;2022-11-20T04:29:12;244.70;;;221.13;;
20443;SDS011;10381;53.730;10.010;2022-11-20T04:33:12;259.92;;;235.45;;
20443;SDS011;10381;53.730;10.010;2022-11-20T04:37:12;253.05;;;228.95;;
20443;SDS011;10381;53.730;10.010;2022-11-20T04:41:16;251.43;;;227.70;;
20443;SDS011;10381;53.730;10.010;2022-11-20T04:45:18;250.70;;;226.82;;
20443;SDS011;10381;53.730;10.010;2022-11-20T04:49:19;252.43;;;228.15;;
20443;SDS011;10381;53.730;10.010;2022-11-20T04:53:19;233.07;;;210.50;;
20443;SDS011;10381;53.730;10.010;2022-11-20T04:57:20;223.80;;;201.90;;
20443;SDS011;10381;53.730;10.010;2022-11-20T05:01:21;219.23;;;198.27;;
20443;SDS011;10381;53.730;10.010;2022-11-20T05:05:23;207.02;;;186.68;;
20443;SDS011;10381;53.730;10.010;2022-11-20T05:09:24;217.23;;;195.50;;
20443;SDS011;10381;53.730;10.010;2022-11-20T05:13:24;209.02;;;187.88;;
20443;SDS011;10381;53.730;10.010;2022-11-20T05:17:24;212.70;;;192.00;;
20443;SDS011;10381;53.730;10.010;2022-11-20T05:21:24;203.03;;;183.07;;
20443;SDS011;10381;53.730;10.010;2022-11-20T05:25:25;196.43;;;177.17;;
20443;SDS011;10381;53.730;10.010;2022-11-20T05:29:25;195.93;;;176.27;;
20443;SDS011;10381;53.730;10.010;2022-11-20T05:33:25;205.43;;;185.00;;
20443;SDS011;10381;53.730;10.010;2022-11-20T05:37:25;197.57;;;177.67;;
20443;SDS011;10381;53.730;10.010;2022-11-20T05:41:26;199.77;;;179.97;;
20443;SDS011;10381;53.730;10.010;2022-11-20T05:45:26;200.53;;;180.30;;
20443;SDS011;10381;53.730;10.010;2022-11-20T05:49:26;188.43;;;169.68;;
20443;SDS011;10381;53.730;10.010;2022-11-20T05:53:27;188.80;;;169.10;;
20443;SDS011;10381;53.730;10.010;2022-11-20T05:57:27;185.90;;;167.50;;
20443;SDS011;10381;53.730;10.010;2022-11-20T06:01:27;192.07;;;173.03;;
20443;SDS011;10381;53.730;10.010;2022-11-20T06:05:27;183.37;;;164.60;;
20443;SDS011;10381;53.730;10.010;2022-11-20T06:09:28;186.97;;;167.83;;
20443;SDS011;10381;53.730;10.010;2022-11-20T06:13:28;186.70;;;166.93;;
20443;SDS011;10381;53.730;10.010;2022-11-20T06:17:28;185.37;;;166.03;;
20443;SDS011;10381;53.730;10.010;2022-11-20T06:21:28;180.40;;;161.37;;
20443;SDS011;10381;53.730;10.010;2022-11-20T06:25:29;183.33;;;164.87;;
20443;SDS011;10381;53.730;10.010;2022-11-20T06:29:29;177.63;;;159.17;;
20443;SDS011;10381;53.730;10.010;2022-11-20T06:33:29;177.33;;;158.97;;
20443;SDS011;10381;53.730;10.010;2022-11-20T06:37:30;173.65;;;155.57;;
20443;SDS011;10381;53.730;10.010;2022-11-20T06:41:30;172.47;;;154.80;;
20443;SDS011;10381;53.730;10.010;2022-11-20T06:45:31;174.48;;;156.30;;
20443;SDS011;10381;53.730;10.010;2022-11-20T06:49:31;169.57;;;152.20;;
20443;SDS011;10381;53.730;10.010;2022-11-20T06:53:32;165.38;;;148.13;;
20443;SDS011;10381;53.730;10.010;2022-11-20T06:57:32;176.68;;;158.68;;
20443;SDS011;10381;53.730;10.010;2022-11-20T07:01:32;177.13;;;159.05;;
20443;SDS011;10381;53.730;10.010;2022-11-20T07:05:33;168.50;;;151.07;;
20443;SDS011;10381;53.730;10.010;2022-11-20T07:09:34;168.73;;;151.52;;
20443;SDS011;10381;53.730;10.010;2022-11-20T07:13:34;170.88;;;152.68;;
20443;SDS011;10381;53.730;10.010;2022-11-20T07:17:34;166.83;;;149.67;;
20443;SDS011;10381;53.730;10.010;2022-11-20T07:21:35;161.93;;;145.30;;
20443;SDS011;10381;53.730;10.010;2022-11-20T07:25:35;168.47;;;151.10;;
20443;SDS011;10381;53.730;10.010;2022-11-20T07:29:35;170.07;;;152.15;;
20443;SDS011;10381;53.730;10.010;2022-11-20T07:33:36;171.33;;;153.37;;
20443;SDS011;10381;53.730;10.010;2022-11-20T07:37:36;176.27;;;157.77;;
20443;SDS011;10381;53.730;10.010;2022-11-20T07:41:37;162.10;;;145.68;;
20443;SDS011;10381;53.730;10.010;2022-11-20T07:45:37;166.85;;;150.40;;
20443;SDS011;10381;53.730;10.010;2022-11-20T07:49:37;169.90;;;152.85;;
20443;SDS011;10381;53.730;10.010;2022-11-20T07:53:37;172.97;;;155.77;;
20443;SDS011;10381;53.730;10.010;2022-11-20T07:57:38;159.67;;;143.93;;
20443;SDS011;10381;53.730;10.010;2022-11-20T08:01:39;168.27;;;151.45;;
20443;SDS011;10381;53.730;10.010;2022-11-20T08:05:39;162.55;;;146.93;;
20443;SDS011;10381;53.730;10.010;2022-11-20T08:09:40;162.23;;;146.07;;
20443;SDS011;10381;53.730;10.010;2022-11-20T08:13:40;177.07;;;159.43;;
20443;SDS011;10381;53.730;10.010;2022-11-20T08:18:03;174.90;;;157.55;;
20443;SDS011;10381;53.730;10.010;2022-11-20T08:22:07;184.95;;;165.45;;
20443;SDS011;10381;53.730;10.010;2022-11-20T08:26:08;219.03;;;198.10;;
20443;SDS011;10381;53.730;10.010;2022-11-20T08:30:08;248.17;;;224.80;;
20443;SDS011;10381;53.730;10.010;2022-11-20T08:34:09;248.18;;;224.07;;
20443;SDS011;10381;53.730;10.010;2022-11-20T08:38:09;265.83;;;240.57;;
20443;SDS011;10381;53.730;10.010;2022-11-20T08:42:10;246.60;;;222.77;;
20443;SDS011;10381;53.730;10.010;2022-11-20T08:46:10;297.27;;;269.50;;
20443;SDS011;10381;53.730;10.010;2022-11-20T08:50:11;402.83;;;364.75;;
20443;SDS011;10381;53.730;10.010;2022-11-20T08:54:13;702.83;;;637.88;;
20443;SDS011;10381;53.730;10.010;2022-11-20T08:58:13;791.83;;;717.15;;
20443;SDS011;10381;53.730;10.010;2022-11-20T09:02:13;835.27;;;755.53;;
20443;SDS011;10381;53.730;10.010;2022-11-20T09:06:14;838.07;;;757.53;;
20443;SDS011;10381;53.730;10.010;2022-11-20T09:10:15;838.67;;;757.92;;
20443;SDS011;10381;53.730;10.010;2022-11-20T09:14:15;818.60;;;740.30;;
20443;SDS011;10381;53.730;10.010;2022-11-20T09:18:16;836.13;;;755.57;;
20443;SDS011;10381;53.730;10.010;2022-11-20T09:22:16;855.57;;;772.20;;
20443;SDS011;10381;53.730;10.010;2022-11-20T09:26:16;865.37;;;779.80;;
20443;SDS011;10381;53.730;10.010;2022-11-20T09:30:16;865.47;;;780.15;;
20443;SDS011;10381;53.730;10.010;2022-11-20T09:34:17;858.60;;;774.47;;
20443;SDS011;10381;53.730;10.010;2022-11-20T09:38:17;848.10;;;766.13;;
20443;SDS011;10381;53.730;10.010;2022-11-20T09:55:29;840.40;;;759.45;;
20443;SDS011;10381;53.730;10.010;2022-11-20T10:03:45;799.15;;;723.55;;
20443;SDS011;10381;53.730;10.010;2022-11-20T10:16:44;614.47;;;557.85;;
20443;SDS011;10381;53.730;10.010;2022-11-20T10:25:19;503.55;;;458.83;;
20443;SDS011;10381;53.730;10.010;2022-11-20T10:29:26;501.65;;;456.45;;
20443;SDS011;10381;53.730;10.010;2022-11-20T10:33:35;449.65;;;410.92;;
20443;SDS011;10381;53.730;10.010;2022-11-20T10:37:41;357.42;;;328.90;;
20443;SDS011;10381;53.730;10.010;2022-11-20T10:41:46;341.13;;;313.48;;
20443;SDS011;10381;53.730;10.010;2022-11-20T10:45:58;316.05;;;290.83;;
20443;SDS011;10381;53.730;10.010;2022-11-20T10:50:04;285.50;;;262.83;;
20443;SDS011;10381;53.730;10.010;2022-11-20T10:54:29;230.13;;;211.90;;
20443;SDS011;10381;53.730;10.010;2022-11-20T11:02:59;151.30;;;138.85;;
20443;SDS011;10381;53.730;10.010;2022-11-20T11:11:24;119.32;;;109.63;;
20443;SDS011;10381;53.730;10.010;2022-11-20T11:15:30;105.55;;;96.88;;
20443;SDS011;10381;53.730;10.010;2022-11-20T11:19:40;83.75;;;76.80;;
20443;SDS011;10381;53.730;10.010;2022-11-20T11:23:41;91.03;;;83.50;;
20443;SDS011;10381;53.730;10.010;2022-11-20T11:27:46;115.13;;;105.32;;
20443;SDS011;10381;53.730;10.010;2022-11-20T11:31:47;111.78;;;102.47;;
20443;SDS011;10381;53.730;10.010;2022-11-20T11:36:21;92.70;;;85.13;;
20443;SDS011;10381;53.730;10.010;2022-11-20T11:40:20;64.57;;;59.17;;
20443;SDS011;10381;53.730;10.010;2022-11-20T11:44:24;53.22;;;48.47;;
20443;SDS011;10381;53.730;10.010;2022-11-20T11:53:17;39.10;;;35.67;;
20443;SDS011;10381;53.730;10.010;2022-11-20T11:57:23;36.78;;;33.50;;
20443;SDS011;10381;53.730;10.010;2022-11-20T12:09:48;41.03;;;37.38;;
20443;SDS011;10381;53.730;10.010;2022-11-20T12:14:01;43.92;;;39.47;;
20443;SDS011;10381;53.730;10.010;2022-11-20T12:18:12;48.47;;;44.22;;
20443;SDS011;10381;53.730;10.010;2022-11-20T12:35:38;35.95;;;31.85;;
20443;SDS011;10381;53.730;10.010;2022-11-20T12:39:51;30.40;;;27.70;;
20443;SDS011;10381;53.730;10.010;2022-11-20T12:44:09;30.17;;;27.38;;
20443;SDS011;10381;53.730;10.010;2022-11-20T12:48:54;31.17;;;28.35;;
20443;SDS011;10381;53.730;10.010;2022-11-20T12:53:10;34.05;;;31.02;;
20443;SDS011;10381;53.730;10.010;2022-11-20T12:57:45;31.30;;;28.13;;
20443;SDS011;10381;53.730;10.010;2022-11-20T13:06:30;30.67;;;27.60;;
20443;SDS011;10381;53.730;10.010;2022-11-20T13:10:33;23.77;;;21.23;;
20443;SDS011;10381;53.730;10.010;2022-11-20T13:19:03;21.88;;;19.48;;
20443;SDS011;10381;53.730;10.010;2022-11-20T13:23:05;20.73;;;18.63;;
20443;SDS011;10381;53.730;10.010;2022-11-20T13:27:17;20.85;;;18.88;;
20443;SDS011;10381;53.730;10.010;2022-11-20T13:31:28;22.58;;;20.48;;
20443;SDS011;10381;53.730;10.010;2022-11-20T13:35:40;24.30;;;21.98;;
20443;SDS011;10381;53.730;10.010;2022-11-20T13:39:41;24.05;;;21.90;;
20443;SDS011;10381;53.730;10.010;2022-11-20T13:43:42;27.75;;;25.10;;
20443;SDS011;10381;53.730;10.010;2022-11-20T13:47:47;30.45;;;27.65;;
20443;SDS011;10381;53.730;10.010;2022-11-20T13:51:49;32.97;;;30.02;;
20443;SDS011;10381;53.730;10.010;2022-11-20T13:55:59;39.63;;;35.50;;
20443;SDS011;10381;53.730;10.010;2022-11-20T14:00:09;39.60;;;35.97;;
20443;SDS011;10381;53.730;10.010;2022-11-20T14:04:15;46.85;;;42.47;;
20443;SDS011;10381;53.730;10.010;2022-11-20T14:08:40;55.65;;;50.55;;
20443;SDS011;10381;53.730;10.010;2022-11-20T14:12:39;53.47;;;48.67;;
20443;SDS011;10381;53.730;10.010;2022-11-20T14:16:39;53.10;;;48.53;;
20443;SDS011;10381;53.730;10.010;2022-11-20T14:20:39;45.63;;;41.47;;
20443;SDS011;10381;53.730;10.010;2022-11-20T14:24:42;45.05;;;41.03;;
20443;SDS011;10381;53.730;10.010;2022-11-20T14:28:42;39.33;;;35.83;;
20443;SDS011;10381;53.730;10.010;2022-11-20T14:32:47;43.92;;;40.15;;
20443;SDS011;10381;53.730;10.010;2022-11-20T14:36:48;40.30;;;36.70;;
20443;SDS011;10381;53.730;10.010;2022-11-20T14:41:08;43.33;;;39.63;;
20443;SDS011;10381;53.730;10.010;2022-11-20T14:45:16;56.03;;;50.22;;
20443;SDS011;10381;53.730;10.010;2022-11-20T14:49:17;65.10;;;59.15;;
20443;SDS011;10381;53.730;10.010;2022-11-20T14:53:21;79.82;;;72.95;;
20443;SDS011;10381;53.730;10.010;2022-11-20T14:57:24;70.90;;;64.10;;
20443;SDS011;10381;53.730;10.010;2022-11-20T15:01:29;70.10;;;63.53;;
20443;SDS011;10381;53.730;10.010;2022-11-20T15:05:47;75.97;;;68.82;;
20443;SDS011;10381;53.730;10.010;2022-11-20T15:09:58;77.30;;;70.32;;
20443;SDS011;10381;53.730;10.010;2022-11-20T15:14:09;80.45;;;73.07;;
20443;SDS011;10381;53.730;10.010;2022-11-20T15:18:11;89.00;;;80.72;;
20443;SDS011;10381;53.730;10.010;2022-11-20T15:22:13;97.00;;;84.05;;
20443;SDS011;10381;53.730;10.010;2022-11-20T15:26:14;129.10;;;96.03;;
20443;SDS011;10381;53.730;10.010;2022-11-20T15:30:20;94.30;;;84.95;;
20443;SDS011;10381;53.730;10.010;2022-11-20T15:34:21;96.18;;;86.43;;
20443;SDS011;10381;53.730;10.010;2022-11-20T15:38:21;92.30;;;82.93;;
20443;SDS011;10381;53.730;10.010;2022-11-20T15:42:22;99.32;;;89.85;;
20443;SDS011;10381;53.730;10.010;2022-11-20T15:46:23;109.03;;;97.83;;
20443;SDS011;10381;53.730;10.010;2022-11-20T15:50:30;111.10;;;99.80;;
20443;SDS011;10381;53.730;10.010;2022-11-20T15:54:36;123.90;;;111.28;;
20443;SDS011;10381;53.730;10.010;2022-11-20T15:58:36;125.97;;;112.67;;
20443;SDS011;10381;53.730;10.010;2022-11-20T16:02:36;127.30;;;113.68;;
20443;SDS011;10381;53.730;10.010;2022-11-20T16:06:36;144.40;;;129.03;;
20443;SDS011;10381;53.730;10.010;2022-11-20T16:10:37;134.07;;;121.00;;
20443;SDS011;10381;53.730;10.010;2022-11-20T16:14:38;136.15;;;123.13;;
20443;SDS011;10381;53.730;10.010;2022-11-20T16:18:57;144.65;;;130.38;;
20443;SDS011;10381;53.730;10.010;2022-11-20T16:22:58;141.00;;;127.50;;
20443;SDS011;10381;53.730;10.010;2022-11-20T16:26:58;149.48;;;135.60;;
20443;SDS011;10381;53.730;10.010;2022-11-20T16:31:07;147.30;;;133.05;;
20443;SDS011;10381;53.730;10.010;2022-11-20T16:35:08;156.27;;;141.98;;
20443;SDS011;10381;53.730;10.010;2022-11-20T16:39:08;159.07;;;144.60;;
20443;SDS011;10381;53.730;10.010;2022-11-20T16:43:09;162.45;;;146.93;;
20443;SDS011;10381;53.730;10.010;2022-11-20T16:47:12;163.90;;;149.02;;
20443;SDS011;10381;53.730;10.010;2022-11-20T16:51:13;161.93;;;146.80;;
20443;SDS011;10381;53.730;10.010;2022-11-20T16:55:13;171.68;;;155.20;;
20443;SDS011;10381;53.730;10.010;2022-11-20T16:59:13;173.38;;;157.50;;
20443;SDS011;10381;53.730;10.010;2022-11-20T17:03:14;173.68;;;157.80;;
20443;SDS011;10381;53.730;10.010;2022-11-20T17:07:16;177.18;;;161.07;;
20443;SDS011;10381;53.730;10.010;2022-11-20T17:11:17;179.25;;;162.27;;
20443;SDS011;10381;53.730;10.010;2022-11-20T17:15:18;179.35;;;162.63;;
20443;SDS011;10381;53.730;10.010;2022-11-20T17:19:19;173.60;;;157.68;;
20443;SDS011;10381;53.730;10.010;2022-11-20T17:23:19;184.90;;;167.85;;
20443;SDS011;10381;53.730;10.010;2022-11-20T17:27:19;180.00;;;163.47;;
20443;SDS011;10381;53.730;10.010;2022-11-20T17:31:19;190.73;;;173.07;;
20443;SDS011;10381;53.730;10.010;2022-11-20T17:35:20;182.70;;;165.02;;
20443;SDS011;10381;53.730;10.010;2022-11-20T17:39:20;176.23;;;159.67;;
20443;SDS011;10381;53.730;10.010;2022-11-20T17:43:20;185.02;;;167.20;;
20443;SDS011;10381;53.730;10.010;2022-11-20T17:47:21;186.83;;;168.43;;
20443;SDS011;10381;53.730;10.010;2022-11-20T17:51:22;204.07;;;184.27;;
20443;SDS011;10381;53.730;10.010;2022-11-20T17:55:24;201.60;;;181.95;;
20443;SDS011;10381;53.730;10.010;2022-11-20T17:59:24;207.77;;;186.48;;
20443;SDS011;10381;53.730;10.010;2022-11-20T18:03:25;212.13;;;190.98;;
20443;SDS011;10381;53.730;10.010;2022-11-20T18:07:25;199.67;;;180.20;;
20443;SDS011;10381;53.730;10.010;2022-11-20T18:11:26;199.50;;;179.90;;
20443;SDS011;10381;53.730;10.010;2022-11-20T18:15:28;208.63;;;187.02;;
20443;SDS011;10381;53.730;10.010;2022-11-20T18:19:30;204.73;;;184.55;;
20443;SDS011;10381;53.730;10.010;2022-11-20T18:23:32;205.02;;;184.18;;
20443;SDS011;10381;53.730;10.010;2022-11-20T18:27:33;213.63;;;192.57;;
20443;SDS011;10381;53.730;10.010;2022-11-20T18:31:33;223.30;;;199.77;;
20443;SDS011;10381;53.730;10.010;2022-11-20T18:35:33;232.85;;;208.50;;
20443;SDS011;10381;53.730;10.010;2022-11-20T18:39:34;243.90;;;218.13;;
20443;SDS011;10381;53.730;10.010;2022-11-20T18:43:35;230.95;;;207.18;;
20443;SDS011;10381;53.730;10.010;2022-11-20T18:47:54;246.55;;;221.45;;
20443;SDS011;10381;53.730;10.010;2022-11-20T18:51:55;241.90;;;217.05;;
20443;SDS011;10381;53.730;10.010;2022-11-20T18:55:55;260.65;;;232.07;;
20443;SDS011;10381;53.730;10.010;2022-11-20T18:59:55;439.37;;;300.73;;
20443;SDS011;10381;53.730;10.010;2022-11-20T19:03:59;261.02;;;224.75;;
20443;SDS011;10381;53.730;10.010;2022-11-20T19:08:00;247.15;;;221.48;;
20443;SDS011;10381;53.730;10.010;2022-11-20T19:12:00;246.07;;;220.00;;
20443;SDS011;10381;53.730;10.010;2022-11-20T19:16:05;242.23;;;216.95;;
20443;SDS011;10381;53.730;10.010;2022-11-20T19:20:08;239.45;;;214.05;;
20443;SDS011;10381;53.730;10.010;2022-11-20T19:24:10;239.55;;;214.18;;
20443;SDS011;10381;53.730;10.010;2022-11-20T19:28:10;238.95;;;212.60;;
20443;SDS011;10381;53.730;10.010;2022-11-20T19:32:10;248.53;;;222.23;;
20443;SDS011;10381;53.730;10.010;2022-11-20T19:36:12;258.83;;;229.70;;
20443;SDS011;10381;53.730;10.010;2022-11-20T19:40:13;244.70;;;218.63;;
20443;SDS011;10381;53.730;10.010;2022-11-20T19:44:14;234.18;;;208.80;;
20443;SDS011;10381;53.730;10.010;2022-11-20T19:48:16;232.60;;;207.68;;
20443;SDS011;10381;53.730;10.010;2022-11-20T19:52:16;237.38;;;212.77;;
20443;SDS011;10381;53.730;10.010;2022-11-20T19:56:17;230.85;;;206.50;;
20443;SDS011;10381;53.730;10.010;2022-11-20T20:00:17;232.43;;;207.00;;
20443;SDS011;10381;53.730;10.010;2022-11-20T20:04:17;239.77;;;213.82;;
20443;SDS011;10381;53.730;10.010;2022-11-20T20:08:18;243.90;;;218.88;;
20443;SDS011;10381;53.730;10.010;2022-11-20T20:12:19;241.30;;;215.70;;
20443;SDS011;10381;53.730;10.010;2022-11-20T20:16:20;237.13;;;212.07;;
20443;SDS011;10381;53.730;10.010;2022-11-20T20:20:21;239.98;;;214.32;;
20443;SDS011;10381;53.730;10.010;2022-11-20T20:24:22;276.27;;;240.85;;
20443;SDS011;10381;53.730;10.010;2022-11-20T20:28:23;263.10;;;236.17;;
20443;SDS011;10381;53.730;10.010;2022-11-20T20:32:23;267.63;;;239.60;;
20443;SDS011;10381;53.730;10.010;2022-11-20T20:36:25;290.50;;;259.63;;
20443;SDS011;10381;53.730;10.010;2022-11-20T20:40:25;283.73;;;252.15;;
20443;SDS011;10381;53.730;10.010;2022-11-20T20:44:26;265.00;;;237.53;;
20443;SDS011;10381;53.730;10.010;2022-11-20T20:48:44;260.38;;;233.98;;
20443;SDS011;10381;53.730;10.010;2022-11-20T20:52:45;265.30;;;236.38;;
20443;SDS011;10381;53.730;10.010;2022-11-20T20:56:45;273.90;;;245.23;;
20443;SDS011;10381;53.730;10.010;2022-11-20T21:00:45;267.57;;;239.10;;
20443;SDS011;10381;53.730;10.010;2022-11-20T21:04:47;265.63;;;237.20;;
20443;SDS011;10381;53.730;10.010;2022-11-20T21:08:47;262.27;;;234.80;;
20443;SDS011;10381;53.730;10.010;2022-11-20T21:12:48;257.52;;;230.50;;
20443;SDS011;10381;53.730;10.010;2022-11-20T21:16:48;260.13;;;232.67;;
20443;SDS011;10381;53.730;10.010;2022-11-20T21:20:48;257.88;;;229.98;;
20443;SDS011;10381;53.730;10.010;2022-11-20T21:25:08;248.85;;;222.30;;
20443;SDS011;10381;53.730;10.010;2022-11-20T21:29:08;244.18;;;218.68;;
20443;SDS011;10381;53.730;10.010;2022-11-20T21:33:08;243.37;;;215.83;;
20443;SDS011;10381;53.730;10.010;2022-11-20T21:37:08;239.65;;;210.15;;
20443;SDS011;10381;53.730;10.010;2022-11-20T21:41:09;230.57;;;205.77;;
20443;SDS011;10381;53.730;10.010;2022-11-20T21:45:11;221.15;;;197.63;;
20443;SDS011;10381;53.730;10.010;2022-11-20T21:49:11;215.48;;;192.27;;
20443;SDS011;10381;53.730;10.010;2022-11-20T21:53:13;201.82;;;180.20;;
20443;SDS011;10381;53.730;10.010;2022-11-20T21:57:13;269.83;;;211.67;;
20443;SDS011;10381;53.730;10.010;2022-11-20T22:01:14;219.25;;;184.10;;
20443;SDS011;10381;53.730;10.010;2022-11-20T22:05:17;217.65;;;194.23;;
20443;SDS011;10381;53.730;10.010;2022-11-20T22:09:17;219.00;;;196.37;;
20443;SDS011;10381;53.730;10.010;2022-11-20T22:13:18;209.98;;;187.93;;
20443;SDS011;10381;53.730;10.010;2022-11-20T22:17:36;209.23;;;181.98;;
20443;SDS011;10381;53.730;10.010;2022-11-20T22:21:55;187.63;;;167.23;;
20443;SDS011;10381;53.730;10.010;2022-11-20T22:26:00;189.40;;;168.97;;
20443;SDS011;10381;53.730;10.010;2022-11-20T22:30:02;199.05;;;177.68;;
20443;SDS011;10381;53.730;10.010;2022-11-20T22:34:02;194.55;;;172.13;;
20443;SDS011;10381;53.730;10.010;2022-11-20T22:38:03;211.57;;;184.63;;
20443;SDS011;10381;53.730;10.010;2022-11-20T22:42:03;214.87;;;183.60;;
20443;SDS011;10381;53.730;10.010;2022-11-20T22:46:04;211.90;;;175.45;;
20443;SDS011;10381;53.730;10.010;2022-11-20T22:50:12;193.85;;;167.07;;
20443;SDS011;10381;53.730;10.010;2022-11-20T22:54:12;195.50;;;169.43;;
20443;SDS011;10381;53.730;10.010;2022-11-20T22:58:13;194.27;;;167.35;;
20443;SDS011;10381;53.730;10.010;2022-11-20T23:02:13;177.33;;;158.13;;
20443;SDS011;10381;53.730;10.010;2022-11-20T23:06:14;175.67;;;156.63;;
20443;SDS011;10381;53.730;10.010;2022-11-20T23:10:15;173.07;;;153.27;;
20443;SDS011;10381;53.730;10.010;2022-11-20T23:14:16;165.37;;;147.37;;
20443;SDS011;10381;53.730;10.010;2022-11-20T23:18:16;163.40;;;145.80;;
20443;SDS011;10381;53.730;10.010;2022-11-20T23:22:16;162.47;;;144.83;;
20443;SDS011;10381;53.730;10.010;2022-11-20T23:26:17;165.67;;;148.00;;
20443;SDS011;10381;53.730;10.010;2022-11-20T23:30:19;167.18;;;149.52;;
20443;SDS011;10381;53.730;10.010;2022-11-20T23:34:20;216.75;;;171.05;;
20443;SDS011;10381;53.730;10.010;2022-11-20T23:38:20;177.63;;;155.50;;
20443;SDS011;10381;53.730;10.010;2022-11-20T23:42:21;170.70;;;152.10;;
20443;SDS011;10381;53.730;10.010;2022-11-20T23:46:21;166.53;;;148.17;;
20443;SDS011;10381;53.730;10.010;2022-11-20T23:50:21;166.00;;;147.77;;
20443;SDS011;10381;53.730;10.010;2022-11-20T23:54:22;171.52;;;151.85;;
20443;SDS011;10381;53.730;10.010;2022-11-20T23:58:23;177.87;;;156.77;;
